sensor_id;sensor_type;location;lat;lon;timestamp;temperature;humidity
8539;DHT22;4307;53.868;11.680;2022-12-18T00:01:52;-5.30;99.90
8539;DHT22;4307;53.868;11.680;2022-12-18T00:04:21;-5.30;99.90
8539;DHT22;4307;53.868;11.680;2022-12-18T00:06:49;-5.40;99.90
8539;DHT22;4307;53.868;11.680;2022-12-18T00:09:17;-5.40;99.90
8539;DHT22;4307;53.868;11.680;2022-12-18T00:11:43;-5.40;99.90
8539;DHT22;4307;53.868;11.680;2022-12-18T00:14:13;-5.40;99.90
8539;DHT22;4307;53.868;11.680;2022-12-18T00:16:42;-5.40;99.90
8539;DHT22;4307;53.868;11.680;2022-12-18T00:19:10;-5.50;99.90
8539;DHT22;4307;53.868;11.680;2022-12-18T00:21:37;-5.50;99.90
8539;DHT22;4307;53.868;11.680;2022-12-18T00:24:05;-5.50;99.90
8539;DHT22;4307;53.868;11.680;2022-12-18T00:26:33;-5.60;99.90
8539;DHT22;4307;53.868;11.680;2022-12-18T00:29:02;-5.60;99.90
8539;DHT22;4307;53.868;11.680;2022-12-18T00:31:29;-5.60;99.90
8539;DHT22;4307;53.868;11.680;2022-12-18T00:33:56;-5.70;99.90
8539;DHT22;4307;53.868;11.680;2022-12-18T00:36:24;-5.70;99.90
8539;DHT22;4307;53.868;11.680;2022-12-18T00:38:53;-5.70;99.90
8539;DHT22;4307;53.868;11.680;2022-12-18T00:41:21;-5.80;99.90
8539;DHT22;4307;53.868;11.680;2022-12-18T00:44:03;-5.80;99.90
8539;DHT22;4307;53.868;11.680;2022-12-18T00:46:31;-5.80;99.90
8539;DHT22;4307;53.868;11.680;2022-12-18T00:48:58;-5.80;99.90
8539;DHT22;4307;53.868;11.680;2022-12-18T00:51:25;-5.80;99.90
8539;DHT22;4307;53.868;11.680;2022-12-18T00:53:53;-5.80;99.90
8539;DHT22;4307;53.868;11.680;2022-12-18T00:56:21;-5.80;99.90
8539;DHT22;4307;53.868;11.680;2022-12-18T00:58:47;-5.80;99.90
8539;DHT22;4307;53.868;11.680;2022-12-18T01:01:14;-5.80;99.90
8539;DHT22;4307;53.868;11.680;2022-12-18T01:03:41;-5.80;99.90
8539;DHT22;4307;53.868;11.680;2022-12-18T01:06:09;-5.80;99.90
8539;DHT22;4307;53.868;11.680;2022-12-18T01:08:37;-5.80;99.90
8539;DHT22;4307;53.868;11.680;2022-12-18T01:11:08;-5.80;99.90
8539;DHT22;4307;53.868;11.680;2022-12-18T01:13:36;-5.80;99.90
8539;DHT22;4307;53.868;11.680;2022-12-18T01:16:03;-5.80;99.90
8539;DHT22;4307;53.868;11.680;2022-12-18T01:18:30;-5.80;99.90
8539;DHT22;4307;53.868;11.680;2022-12-18T01:20:56;-5.80;99.90
8539;DHT22;4307;53.868;11.680;2022-12-18T01:23:23;-5.80;99.90
8539;DHT22;4307;53.868;11.680;2022-12-18T01:25:50;-5.80;99.90
8539;DHT22;4307;53.868;11.680;2022-12-18T01:28:16;-5.80;99.90
8539;DHT22;4307;53.868;11.680;2022-12-18T01:30:44;-5.80;99.90
8539;DHT22;4307;53.868;11.680;2022-12-18T01:33:11;-5.80;99.90
8539;DHT22;4307;53.868;11.680;2022-12-18T01:35:40;-5.80;99.90
8539;DHT22;4307;53.868;11.680;2022-12-18T01:38:07;-5.80;99.90
8539;DHT22;4307;53.868;11.680;2022-12-18T01:40:34;-5.90;99.90
8539;DHT22;4307;53.868;11.680;2022-12-18T01:43:01;-5.90;99.90
8539;DHT22;4307;53.868;11.680;2022-12-18T01:45:29;-6.00;99.90
8539;DHT22;4307;53.868;11.680;2022-12-18T01:48:00;-5.90;99.90
8539;DHT22;4307;53.868;11.680;2022-12-18T01:50:31;-5.90;99.90
8539;DHT22;4307;53.868;11.680;2022-12-18T01:53:02;-5.90;99.90
8539;DHT22;4307;53.868;11.680;2022-12-18T01:55:34;-5.90;99.90
8539;DHT22;4307;53.868;11.680;2022-12-18T01:58:02;-5.80;99.90
8539;DHT22;4307;53.868;11.680;2022-12-18T02:00:30;-5.80;99.90
8539;DHT22;4307;53.868;11.680;2022-12-18T02:02:58;-5.70;99.90
8539;DHT22;4307;53.868;11.680;2022-12-18T02:05:33;-5.70;99.90
8539;DHT22;4307;53.868;11.680;2022-12-18T02:08:08;-5.70;99.90
8539;DHT22;4307;53.868;11.680;2022-12-18T02:10:41;-5.70;99.90
8539;DHT22;4307;53.868;11.680;2022-12-18T02:13:17;-5.60;99.90
8539;DHT22;4307;53.868;11.680;2022-12-18T02:15:53;-5.60;99.90
8539;DHT22;4307;53.868;11.680;2022-12-18T02:18:25;-5.60;99.90
8539;DHT22;4307;53.868;11.680;2022-12-18T02:20:59;-5.60;99.90
8539;DHT22;4307;53.868;11.680;2022-12-18T02:23:41;-5.60;99.90
8539;DHT22;4307;53.868;11.680;2022-12-18T02:26:19;-5.60;99.90
8539;DHT22;4307;53.868;11.680;2022-12-18T02:28:51;-5.70;99.90
8539;DHT22;4307;53.868;11.680;2022-12-18T02:31:20;-5.80;99.90
8539;DHT22;4307;53.868;11.680;2022-12-18T02:33:49;-5.80;99.90
8539;DHT22;4307;53.868;11.680;2022-12-18T02:36:18;-5.80;99.90
8539;DHT22;4307;53.868;11.680;2022-12-18T02:38:47;-5.80;99.90
8539;DHT22;4307;53.868;11.680;2022-12-18T02:41:14;-5.80;99.90
8539;DHT22;4307;53.868;11.680;2022-12-18T02:43:47;-5.90;99.90
8539;DHT22;4307;53.868;11.680;2022-12-18T02:46:27;-5.80;99.90
8539;DHT22;4307;53.868;11.680;2022-12-18T02:49:01;-5.90;99.90
8539;DHT22;4307;53.868;11.680;2022-12-18T02:51:31;-5.90;99.90
8539;DHT22;4307;53.868;11.680;2022-12-18T02:54:08;-5.80;99.90
8539;DHT22;4307;53.868;11.680;2022-12-18T02:56:41;-5.80;99.90
8539;DHT22;4307;53.868;11.680;2022-12-18T02:59:14;-5.80;99.90
8539;DHT22;4307;53.868;11.680;2022-12-18T03:01:49;-5.70;99.90
8539;DHT22;4307;53.868;11.680;2022-12-18T03:04:22;-5.70;99.90
8539;DHT22;4307;53.868;11.680;2022-12-18T03:06:55;-5.70;99.90
8539;DHT22;4307;53.868;11.680;2022-12-18T03:09:31;-5.70;99.90
8539;DHT22;4307;53.868;11.680;2022-12-18T03:12:04;-5.70;99.90
8539;DHT22;4307;53.868;11.680;2022-12-18T03:14:54;-5.70;99.90
8539;DHT22;4307;53.868;11.680;2022-12-18T03:17:25;-5.70;99.90
8539;DHT22;4307;53.868;11.680;2022-12-18T03:19:55;-5.70;99.90
8539;DHT22;4307;53.868;11.680;2022-12-18T03:22:23;-5.70;99.90
8539;DHT22;4307;53.868;11.680;2022-12-18T03:24:54;-5.70;99.90
8539;DHT22;4307;53.868;11.680;2022-12-18T03:27:22;-5.80;99.90
8539;DHT22;4307;53.868;11.680;2022-12-18T03:29:54;-5.80;99.90
8539;DHT22;4307;53.868;11.680;2022-12-18T03:32:28;-5.90;99.90
8539;DHT22;4307;53.868;11.680;2022-12-18T03:34:58;-5.90;99.90
8539;DHT22;4307;53.868;11.680;2022-12-18T03:37:25;-5.90;99.90
8539;DHT22;4307;53.868;11.680;2022-12-18T03:39:52;-5.90;99.90
8539;DHT22;4307;53.868;11.680;2022-12-18T03:42:27;-5.90;99.90
8539;DHT22;4307;53.868;11.680;2022-12-18T03:45:01;-5.90;99.90
8539;DHT22;4307;53.868;11.680;2022-12-18T03:47:35;-6.00;99.90
8539;DHT22;4307;53.868;11.680;2022-12-18T03:50:10;-6.00;99.90
8539;DHT22;4307;53.868;11.680;2022-12-18T03:52:40;-5.90;99.90
8539;DHT22;4307;53.868;11.680;2022-12-18T03:55:09;-6.00;99.90
8539;DHT22;4307;53.868;11.680;2022-12-18T03:57:37;-6.00;99.90
8539;DHT22;4307;53.868;11.680;2022-12-18T04:00:09;-6.00;99.90
8539;DHT22;4307;53.868;11.680;2022-12-18T04:02:38;-5.90;99.90
8539;DHT22;4307;53.868;11.680;2022-12-18T04:05:08;-5.90;99.90
8539;DHT22;4307;53.868;11.680;2022-12-18T04:07:37;-5.90;99.90
8539;DHT22;4307;53.868;11.680;2022-12-18T04:10:07;-5.90;99.90
8539;DHT22;4307;53.868;11.680;2022-12-18T04:12:41;-5.90;99.90
8539;DHT22;4307;53.868;11.680;2022-12-18T04:15:10;-5.90;99.90
8539;DHT22;4307;53.868;11.680;2022-12-18T04:17:38;-5.90;99.90
8539;DHT22;4307;53.868;11.680;2022-12-18T04:20:06;-5.90;99.90
8539;DHT22;4307;53.868;11.680;2022-12-18T04:22:33;-5.90;99.90
8539;DHT22;4307;53.868;11.680;2022-12-18T04:24:59;-5.90;99.90
8539;DHT22;4307;53.868;11.680;2022-12-18T04:27:26;-5.90;99.90
8539;DHT22;4307;53.868;11.680;2022-12-18T04:29:53;-5.90;99.90
8539;DHT22;4307;53.868;11.680;2022-12-18T04:32:21;-6.00;99.90
8539;DHT22;4307;53.868;11.680;2022-12-18T04:34:48;-6.00;99.90
8539;DHT22;4307;53.868;11.680;2022-12-18T04:37:14;-6.00;99.90
8539;DHT22;4307;53.868;11.680;2022-12-18T04:39:41;-6.00;99.90
8539;DHT22;4307;53.868;11.680;2022-12-18T04:42:08;-6.10;99.90
8539;DHT22;4307;53.868;11.680;2022-12-18T04:44:34;-6.10;99.90
8539;DHT22;4307;53.868;11.680;2022-12-18T04:47:02;-6.10;99.90
8539;DHT22;4307;53.868;11.680;2022-12-18T04:49:30;-6.10;99.90
8539;DHT22;4307;53.868;11.680;2022-12-18T04:51:57;-6.10;99.90
8539;DHT22;4307;53.868;11.680;2022-12-18T04:54:23;-6.10;99.90
8539;DHT22;4307;53.868;11.680;2022-12-18T04:56:50;-6.20;99.90
8539;DHT22;4307;53.868;11.680;2022-12-18T04:59:17;-6.20;99.90
8539;DHT22;4307;53.868;11.680;2022-12-18T05:01:44;-6.20;99.90
8539;DHT22;4307;53.868;11.680;2022-12-18T05:04:11;-6.20;99.90
8539;DHT22;4307;53.868;11.680;2022-12-18T05:06:39;-6.20;99.90
8539;DHT22;4307;53.868;11.680;2022-12-18T05:09:05;-6.20;99.90
8539;DHT22;4307;53.868;11.680;2022-12-18T05:11:32;-6.20;99.90
8539;DHT22;4307;53.868;11.680;2022-12-18T05:13:59;-6.20;99.90
8539;DHT22;4307;53.868;11.680;2022-12-18T05:16:25;-6.20;99.90
8539;DHT22;4307;53.868;11.680;2022-12-18T05:18:52;-6.20;99.90
8539;DHT22;4307;53.868;11.680;2022-12-18T05:21:19;-6.20;99.90
8539;DHT22;4307;53.868;11.680;2022-12-18T05:23:46;-6.10;99.90
8539;DHT22;4307;53.868;11.680;2022-12-18T05:26:15;-6.20;99.90
8539;DHT22;4307;53.868;11.680;2022-12-18T05:28:42;-6.20;99.90
8539;DHT22;4307;53.868;11.680;2022-12-18T05:31:10;-6.20;99.90
8539;DHT22;4307;53.868;11.680;2022-12-18T05:33:37;-6.20;99.90
8539;DHT22;4307;53.868;11.680;2022-12-18T05:36:06;-6.20;99.90
8539;DHT22;4307;53.868;11.680;2022-12-18T05:38:34;-6.20;99.90
8539;DHT22;4307;53.868;11.680;2022-12-18T05:41:03;-6.30;99.90
8539;DHT22;4307;53.868;11.680;2022-12-18T05:43:30;-6.30;99.90
8539;DHT22;4307;53.868;11.680;2022-12-18T05:45:57;-6.30;99.90
8539;DHT22;4307;53.868;11.680;2022-12-18T05:48:24;-6.30;99.90
8539;DHT22;4307;53.868;11.680;2022-12-18T05:50:51;-6.30;99.90
8539;DHT22;4307;53.868;11.680;2022-12-18T05:53:19;-6.30;99.90
8539;DHT22;4307;53.868;11.680;2022-12-18T05:55:46;-6.30;99.90
8539;DHT22;4307;53.868;11.680;2022-12-18T05:58:15;-6.30;99.90
8539;DHT22;4307;53.868;11.680;2022-12-18T06:00:43;-6.40;99.90
8539;DHT22;4307;53.868;11.680;2022-12-18T06:03:11;-6.40;99.90
8539;DHT22;4307;53.868;11.680;2022-12-18T06:05:40;-6.50;99.90
8539;DHT22;4307;53.868;11.680;2022-12-18T06:08:07;-6.50;99.90
8539;DHT22;4307;53.868;11.680;2022-12-18T06:10:34;-6.50;99.90
8539;DHT22;4307;53.868;11.680;2022-12-18T06:13:01;-6.50;99.90
8539;DHT22;4307;53.868;11.680;2022-12-18T06:15:29;-6.60;99.90
8539;DHT22;4307;53.868;11.680;2022-12-18T06:17:55;-6.50;99.90
8539;DHT22;4307;53.868;11.680;2022-12-18T06:20:22;-6.50;99.90
8539;DHT22;4307;53.868;11.680;2022-12-18T06:22:49;-6.50;99.90
8539;DHT22;4307;53.868;11.680;2022-12-18T06:25:15;-6.50;99.90
8539;DHT22;4307;53.868;11.680;2022-12-18T06:27:42;-6.50;99.90
8539;DHT22;4307;53.868;11.680;2022-12-18T06:30:10;-6.40;99.90
8539;DHT22;4307;53.868;11.680;2022-12-18T06:32:39;-6.40;99.90
8539;DHT22;4307;53.868;11.680;2022-12-18T06:35:06;-6.40;99.90
8539;DHT22;4307;53.868;11.680;2022-12-18T06:37:33;-6.40;99.90
8539;DHT22;4307;53.868;11.680;2022-12-18T06:40:00;-6.40;99.90
8539;DHT22;4307;53.868;11.680;2022-12-18T06:42:28;-6.50;99.90
8539;DHT22;4307;53.868;11.680;2022-12-18T06:44:55;-6.50;99.90
8539;DHT22;4307;53.868;11.680;2022-12-18T06:47:21;-6.50;99.90
8539;DHT22;4307;53.868;11.680;2022-12-18T06:49:49;-6.50;99.90
8539;DHT22;4307;53.868;11.680;2022-12-18T06:52:16;-6.50;99.90
8539;DHT22;4307;53.868;11.680;2022-12-18T06:54:43;-6.50;99.90
8539;DHT22;4307;53.868;11.680;2022-12-18T06:57:09;-6.50;99.90
8539;DHT22;4307;53.868;11.680;2022-12-18T06:59:36;-6.50;99.90
8539;DHT22;4307;53.868;11.680;2022-12-18T07:02:03;-6.50;99.90
8539;DHT22;4307;53.868;11.680;2022-12-18T07:04:30;-6.50;99.90
8539;DHT22;4307;53.868;11.680;2022-12-18T07:06:57;-6.50;99.90
8539;DHT22;4307;53.868;11.680;2022-12-18T07:09:24;-6.50;99.90
8539;DHT22;4307;53.868;11.680;2022-12-18T07:11:51;-6.50;99.90
8539;DHT22;4307;53.868;11.680;2022-12-18T07:14:18;-6.40;99.90
8539;DHT22;4307;53.868;11.680;2022-12-18T07:16:44;-6.40;99.90
8539;DHT22;4307;53.868;11.680;2022-12-18T07:19:11;-6.50;99.90
8539;DHT22;4307;53.868;11.680;2022-12-18T07:21:38;-6.50;99.90
8539;DHT22;4307;53.868;11.680;2022-12-18T07:24:07;-6.50;99.90
8539;DHT22;4307;53.868;11.680;2022-12-18T07:26:33;-6.50;99.90
8539;DHT22;4307;53.868;11.680;2022-12-18T07:29:00;-6.60;99.90
8539;DHT22;4307;53.868;11.680;2022-12-18T07:31:27;-6.60;99.90
8539;DHT22;4307;53.868;11.680;2022-12-18T07:33:54;-6.60;99.90
8539;DHT22;4307;53.868;11.680;2022-12-18T07:36:21;-6.60;99.90
8539;DHT22;4307;53.868;11.680;2022-12-18T07:38:48;-6.60;99.90
8539;DHT22;4307;53.868;11.680;2022-12-18T07:41:16;-6.60;99.90
8539;DHT22;4307;53.868;11.680;2022-12-18T07:43:44;-6.60;99.90
8539;DHT22;4307;53.868;11.680;2022-12-18T07:46:12;-6.60;99.90
8539;DHT22;4307;53.868;11.680;2022-12-18T07:48:39;-6.50;99.90
8539;DHT22;4307;53.868;11.680;2022-12-18T07:51:06;-6.60;99.90
8539;DHT22;4307;53.868;11.680;2022-12-18T07:53:34;-6.60;99.90
8539;DHT22;4307;53.868;11.680;2022-12-18T07:56:02;-6.60;99.90
8539;DHT22;4307;53.868;11.680;2022-12-18T07:58:32;-6.50;99.90
8539;DHT22;4307;53.868;11.680;2022-12-18T08:01:03;-6.30;99.90
8539;DHT22;4307;53.868;11.680;2022-12-18T08:03:30;-6.20;99.90
8539;DHT22;4307;53.868;11.680;2022-12-18T08:05:59;-6.00;99.90
8539;DHT22;4307;53.868;11.680;2022-12-18T08:08:25;-5.80;99.90
8539;DHT22;4307;53.868;11.680;2022-12-18T08:10:52;-5.60;99.90
8539;DHT22;4307;53.868;11.680;2022-12-18T08:13:18;-5.40;99.90
8539;DHT22;4307;53.868;11.680;2022-12-18T08:15:54;-5.30;99.90
8539;DHT22;4307;53.868;11.680;2022-12-18T08:18:21;-5.20;99.90
8539;DHT22;4307;53.868;11.680;2022-12-18T08:20:48;-5.10;99.90
8539;DHT22;4307;53.868;11.680;2022-12-18T08:23:14;-5.00;99.90
8539;DHT22;4307;53.868;11.680;2022-12-18T08:25:41;-4.90;99.90
8539;DHT22;4307;53.868;11.680;2022-12-18T08:28:07;-4.90;99.90
8539;DHT22;4307;53.868;11.680;2022-12-18T08:30:35;-4.80;99.90
8539;DHT22;4307;53.868;11.680;2022-12-18T08:33:03;-4.80;99.90
8539;DHT22;4307;53.868;11.680;2022-12-18T08:35:30;-4.70;99.90
8539;DHT22;4307;53.868;11.680;2022-12-18T08:38:00;-4.60;99.90
8539;DHT22;4307;53.868;11.680;2022-12-18T08:40:27;-4.50;99.90
8539;DHT22;4307;53.868;11.680;2022-12-18T08:42:54;-4.30;99.90
8539;DHT22;4307;53.868;11.680;2022-12-18T08:45:38;-4.10;99.90
8539;DHT22;4307;53.868;11.680;2022-12-18T08:48:06;-4.00;99.90
8539;DHT22;4307;53.868;11.680;2022-12-18T08:50:33;-3.80;99.90
8539;DHT22;4307;53.868;11.680;2022-12-18T08:53:00;-3.70;99.90
8539;DHT22;4307;53.868;11.680;2022-12-18T08:55:26;-3.50;99.90
8539;DHT22;4307;53.868;11.680;2022-12-18T08:57:53;-3.30;99.90
8539;DHT22;4307;53.868;11.680;2022-12-18T09:00:20;-3.00;99.90
8539;DHT22;4307;53.868;11.680;2022-12-18T09:02:47;-3.00;99.90
8539;DHT22;4307;53.868;11.680;2022-12-18T09:05:16;-3.00;99.90
8539;DHT22;4307;53.868;11.680;2022-12-18T09:07:42;-2.90;99.90
8539;DHT22;4307;53.868;11.680;2022-12-18T09:10:09;-2.90;99.90
8539;DHT22;4307;53.868;11.680;2022-12-18T09:12:36;-2.90;99.90
8539;DHT22;4307;53.868;11.680;2022-12-18T09:15:03;-2.80;99.90
8539;DHT22;4307;53.868;11.680;2022-12-18T09:17:30;-2.70;99.90
8539;DHT22;4307;53.868;11.680;2022-12-18T09:19:56;-2.50;99.90
8539;DHT22;4307;53.868;11.680;2022-12-18T09:22:24;-2.50;99.90
8539;DHT22;4307;53.868;11.680;2022-12-18T09:24:51;-2.50;99.90
8539;DHT22;4307;53.868;11.680;2022-12-18T09:27:17;-2.50;99.90
8539;DHT22;4307;53.868;11.680;2022-12-18T09:29:44;-2.50;99.90
8539;DHT22;4307;53.868;11.680;2022-12-18T09:32:11;-2.50;99.90
8539;DHT22;4307;53.868;11.680;2022-12-18T09:34:37;-2.50;99.90
8539;DHT22;4307;53.868;11.680;2022-12-18T09:37:04;-2.60;99.90
8539;DHT22;4307;53.868;11.680;2022-12-18T09:39:36;-2.60;99.90
8539;DHT22;4307;53.868;11.680;2022-12-18T09:42:02;-2.50;99.90
8539;DHT22;4307;53.868;11.680;2022-12-18T09:44:32;-2.50;99.90
8539;DHT22;4307;53.868;11.680;2022-12-18T09:47:04;-2.50;99.90
8539;DHT22;4307;53.868;11.680;2022-12-18T09:49:35;-2.50;99.90
8539;DHT22;4307;53.868;11.680;2022-12-18T09:52:08;-2.40;99.90
8539;DHT22;4307;53.868;11.680;2022-12-18T09:54:39;-2.40;99.90
8539;DHT22;4307;53.868;11.680;2022-12-18T09:57:06;-2.40;99.90
8539;DHT22;4307;53.868;11.680;2022-12-18T09:59:36;-2.30;99.90
8539;DHT22;4307;53.868;11.680;2022-12-18T10:02:13;-2.20;99.90
8539;DHT22;4307;53.868;11.680;2022-12-18T10:04:41;-2.30;99.90
8539;DHT22;4307;53.868;11.680;2022-12-18T10:07:13;-2.20;99.90
8539;DHT22;4307;53.868;11.680;2022-12-18T10:09:49;-2.10;99.90
8539;DHT22;4307;53.868;11.680;2022-12-18T10:12:23;-2.10;99.90
8539;DHT22;4307;53.868;11.680;2022-12-18T10:14:58;-2.00;99.90
8539;DHT22;4307;53.868;11.680;2022-12-18T10:17:35;-2.00;99.90
8539;DHT22;4307;53.868;11.680;2022-12-18T10:20:12;-2.00;99.90
8539;DHT22;4307;53.868;11.680;2022-12-18T10:22:47;-1.80;99.90
8539;DHT22;4307;53.868;11.680;2022-12-18T10:25:21;-1.70;99.90
8539;DHT22;4307;53.868;11.680;2022-12-18T10:27:52;-1.50;99.90
8539;DHT22;4307;53.868;11.680;2022-12-18T10:30:21;-1.50;99.90
8539;DHT22;4307;53.868;11.680;2022-12-18T10:32:48;-1.30;99.90
8539;DHT22;4307;53.868;11.680;2022-12-18T10:35:19;-1.20;99.90
8539;DHT22;4307;53.868;11.680;2022-12-18T10:38:06;-1.20;99.90
8539;DHT22;4307;53.868;11.680;2022-12-18T10:40:53;-1.10;99.90
8539;DHT22;4307;53.868;11.680;2022-12-18T10:43:23;-1.00;99.90
8539;DHT22;4307;53.868;11.680;2022-12-18T10:45:59;-0.80;99.90
8539;DHT22;4307;53.868;11.680;2022-12-18T10:48:26;-0.70;99.90
8539;DHT22;4307;53.868;11.680;2022-12-18T10:50:53;-0.60;99.90
8539;DHT22;4307;53.868;11.680;2022-12-18T10:53:23;-0.50;99.90
8539;DHT22;4307;53.868;11.680;2022-12-18T10:55:53;-0.50;99.90
8539;DHT22;4307;53.868;11.680;2022-12-18T10:58:23;-0.70;99.90
8539;DHT22;4307;53.868;11.680;2022-12-18T11:01:06;-0.60;99.90
8539;DHT22;4307;53.868;11.680;2022-12-18T11:03:35;-0.50;99.90
8539;DHT22;4307;53.868;11.680;2022-12-18T11:06:05;-0.40;99.90
8539;DHT22;4307;53.868;11.680;2022-12-18T11:08:33;-0.30;99.90
8539;DHT22;4307;53.868;11.680;2022-12-18T11:11:01;-0.20;99.90
8539;DHT22;4307;53.868;11.680;2022-12-18T11:13:29;-0.10;99.90
8539;DHT22;4307;53.868;11.680;2022-12-18T11:15:56;-0.10;99.90
8539;DHT22;4307;53.868;11.680;2022-12-18T11:18:27;-0.20;99.90
8539;DHT22;4307;53.868;11.680;2022-12-18T11:20:56;-0.20;99.90
8539;DHT22;4307;53.868;11.680;2022-12-18T11:23:24;-0.20;99.90
8539;DHT22;4307;53.868;11.680;2022-12-18T11:25:53;-0.10;99.90
8539;DHT22;4307;53.868;11.680;2022-12-18T11:28:39;0.00;99.90
8539;DHT22;4307;53.868;11.680;2022-12-18T11:33:58;0.30;99.90
8539;DHT22;4307;53.868;11.680;2022-12-18T11:36:28;0.30;99.90
8539;DHT22;4307;53.868;11.680;2022-12-18T11:38:57;0.30;99.90
8539;DHT22;4307;53.868;11.680;2022-12-18T11:41:29;0.30;99.90
8539;DHT22;4307;53.868;11.680;2022-12-18T11:44:15;0.20;99.90
8539;DHT22;4307;53.868;11.680;2022-12-18T11:46:47;0.20;99.90
8539;DHT22;4307;53.868;11.680;2022-12-18T11:49:20;0.20;99.90
8539;DHT22;4307;53.868;11.680;2022-12-18T11:51:54;0.10;99.90
8539;DHT22;4307;53.868;11.680;2022-12-18T11:54:22;0.00;99.90
8539;DHT22;4307;53.868;11.680;2022-12-18T11:56:51;0.00;99.90
8539;DHT22;4307;53.868;11.680;2022-12-18T11:59:28;0.10;99.90
8539;DHT22;4307;53.868;11.680;2022-12-18T12:02:04;0.30;99.90
8539;DHT22;4307;53.868;11.680;2022-12-18T12:04:46;0.50;99.90
8539;DHT22;4307;53.868;11.680;2022-12-18T12:07:26;0.40;99.90
8539;DHT22;4307;53.868;11.680;2022-12-18T12:10:06;0.10;99.90
8539;DHT22;4307;53.868;11.680;2022-12-18T12:12:44;0.00;99.90
8539;DHT22;4307;53.868;11.680;2022-12-18T12:15:25;-0.30;99.90
8539;DHT22;4307;53.868;11.680;2022-12-18T12:17:58;-0.60;99.90
8539;DHT22;4307;53.868;11.680;2022-12-18T12:20:36;-0.70;99.90
8539;DHT22;4307;53.868;11.680;2022-12-18T12:23:13;-1.00;99.90
8539;DHT22;4307;53.868;11.680;2022-12-18T12:25:47;-1.20;99.90
8539;DHT22;4307;53.868;11.680;2022-12-18T12:28:22;-1.40;99.90
8539;DHT22;4307;53.868;11.680;2022-12-18T12:31:02;-1.60;99.90
8539;DHT22;4307;53.868;11.680;2022-12-18T12:33:42;-1.70;99.90
8539;DHT22;4307;53.868;11.680;2022-12-18T12:36:18;-1.70;99.90
8539;DHT22;4307;53.868;11.680;2022-12-18T12:38:49;-1.80;99.90
8539;DHT22;4307;53.868;11.680;2022-12-18T12:41:19;-1.80;99.90
8539;DHT22;4307;53.868;11.680;2022-12-18T12:44:16;-1.80;99.90
8539;DHT22;4307;53.868;11.680;2022-12-18T12:46:45;-1.80;99.90
8539;DHT22;4307;53.868;11.680;2022-12-18T12:49:15;-1.80;99.90
8539;DHT22;4307;53.868;11.680;2022-12-18T12:51:45;-1.80;99.90
8539;DHT22;4307;53.868;11.680;2022-12-18T12:54:16;-1.80;99.90
8539;DHT22;4307;53.868;11.680;2022-12-18T12:56:48;-1.90;99.90
8539;DHT22;4307;53.868;11.680;2022-12-18T12:59:22;-2.00;99.90
8539;DHT22;4307;53.868;11.680;2022-12-18T13:01:59;-2.00;99.90
8539;DHT22;4307;53.868;11.680;2022-12-18T13:04:35;-2.10;99.90
8539;DHT22;4307;53.868;11.680;2022-12-18T13:07:06;-2.20;99.90
8539;DHT22;4307;53.868;11.680;2022-12-18T13:10:11;-2.20;99.90
8539;DHT22;4307;53.868;11.680;2022-12-18T13:12:51;-2.20;99.90
8539;DHT22;4307;53.868;11.680;2022-12-18T13:15:25;-2.20;99.90
8539;DHT22;4307;53.868;11.680;2022-12-18T13:18:20;-2.20;99.90
8539;DHT22;4307;53.868;11.680;2022-12-18T13:20:49;-2.20;99.90
8539;DHT22;4307;53.868;11.680;2022-12-18T13:23:26;-2.20;99.90
8539;DHT22;4307;53.868;11.680;2022-12-18T13:25:55;-2.30;99.90
8539;DHT22;4307;53.868;11.680;2022-12-18T13:28:23;-2.30;99.90
8539;DHT22;4307;53.868;11.680;2022-12-18T13:30:53;-2.30;99.90
8539;DHT22;4307;53.868;11.680;2022-12-18T13:33:37;-2.30;99.90
8539;DHT22;4307;53.868;11.680;2022-12-18T13:36:14;-2.30;99.90
8539;DHT22;4307;53.868;11.680;2022-12-18T13:38:42;-2.30;99.90
8539;DHT22;4307;53.868;11.680;2022-12-18T13:41:26;-2.30;99.90
8539;DHT22;4307;53.868;11.680;2022-12-18T13:43:54;-2.30;99.90
8539;DHT22;4307;53.868;11.680;2022-12-18T13:46:25;-2.30;99.90
8539;DHT22;4307;53.868;11.680;2022-12-18T13:49:01;-2.40;99.90
8539;DHT22;4307;53.868;11.680;2022-12-18T13:51:30;-2.50;99.90
8539;DHT22;4307;53.868;11.680;2022-12-18T13:54:00;-2.50;99.90
8539;DHT22;4307;53.868;11.680;2022-12-18T13:56:29;-2.60;99.90
8539;DHT22;4307;53.868;11.680;2022-12-18T13:59:12;-2.60;99.90
8539;DHT22;4307;53.868;11.680;2022-12-18T14:01:45;-2.60;99.90
8539;DHT22;4307;53.868;11.680;2022-12-18T14:04:25;-2.60;99.90
8539;DHT22;4307;53.868;11.680;2022-12-18T14:06:56;-2.60;99.90
8539;DHT22;4307;53.868;11.680;2022-12-18T14:09:26;-2.60;99.90
8539;DHT22;4307;53.868;11.680;2022-12-18T14:11:55;-2.60;99.90
8539;DHT22;4307;53.868;11.680;2022-12-18T14:14:44;-2.60;99.90
8539;DHT22;4307;53.868;11.680;2022-12-18T14:17:13;-2.70;99.90
8539;DHT22;4307;53.868;11.680;2022-12-18T14:19:47;-2.70;99.90
8539;DHT22;4307;53.868;11.680;2022-12-18T14:22:17;-2.80;99.90
8539;DHT22;4307;53.868;11.680;2022-12-18T14:24:44;-2.80;99.90
8539;DHT22;4307;53.868;11.680;2022-12-18T14:27:22;-2.80;99.90
8539;DHT22;4307;53.868;11.680;2022-12-18T14:29:49;-2.90;99.90
8539;DHT22;4307;53.868;11.680;2022-12-18T14:32:17;-3.00;99.90
8539;DHT22;4307;53.868;11.680;2022-12-18T14:34:48;-3.00;99.90
8539;DHT22;4307;53.868;11.680;2022-12-18T14:37:16;-3.00;99.90
8539;DHT22;4307;53.868;11.680;2022-12-18T14:39:54;-3.10;99.90
8539;DHT22;4307;53.868;11.680;2022-12-18T14:42:22;-3.10;99.90
8539;DHT22;4307;53.868;11.680;2022-12-18T14:45:32;-3.20;99.90
8539;DHT22;4307;53.868;11.680;2022-12-18T14:47:59;-3.20;99.90
8539;DHT22;4307;53.868;11.680;2022-12-18T14:50:27;-3.30;99.90
8539;DHT22;4307;53.868;11.680;2022-12-18T14:52:53;-3.30;99.90
8539;DHT22;4307;53.868;11.680;2022-12-18T14:55:21;-3.30;99.90
8539;DHT22;4307;53.868;11.680;2022-12-18T14:57:50;-3.30;99.90
8539;DHT22;4307;53.868;11.680;2022-12-18T15:00:19;-3.40;99.90
8539;DHT22;4307;53.868;11.680;2022-12-18T15:02:49;-3.40;99.90
8539;DHT22;4307;53.868;11.680;2022-12-18T15:05:19;-3.40;99.90
8539;DHT22;4307;53.868;11.680;2022-12-18T15:07:49;-3.50;99.90
8539;DHT22;4307;53.868;11.680;2022-12-18T15:10:18;-3.50;99.90
8539;DHT22;4307;53.868;11.680;2022-12-18T15:12:47;-3.50;99.90
8539;DHT22;4307;53.868;11.680;2022-12-18T15:15:45;-3.50;99.90
8539;DHT22;4307;53.868;11.680;2022-12-18T15:18:14;-3.60;99.90
8539;DHT22;4307;53.868;11.680;2022-12-18T15:20:43;-3.60;99.90
8539;DHT22;4307;53.868;11.680;2022-12-18T15:23:15;-3.60;99.90
8539;DHT22;4307;53.868;11.680;2022-12-18T15:25:43;-3.70;99.90
8539;DHT22;4307;53.868;11.680;2022-12-18T15:28:18;-3.70;99.90
8539;DHT22;4307;53.868;11.680;2022-12-18T15:30:59;-3.70;99.90
8539;DHT22;4307;53.868;11.680;2022-12-18T15:33:29;-3.70;99.90
8539;DHT22;4307;53.868;11.680;2022-12-18T15:35:57;-3.70;99.90
8539;DHT22;4307;53.868;11.680;2022-12-18T15:38:25;-3.70;99.90
8539;DHT22;4307;53.868;11.680;2022-12-18T15:40:52;-3.70;99.90
8539;DHT22;4307;53.868;11.680;2022-12-18T15:43:20;-3.70;99.90
8539;DHT22;4307;53.868;11.680;2022-12-18T15:46:04;-3.80;99.90
8539;DHT22;4307;53.868;11.680;2022-12-18T15:48:39;-3.70;99.90
8539;DHT22;4307;53.868;11.680;2022-12-18T15:51:11;-3.80;99.90
8539;DHT22;4307;53.868;11.680;2022-12-18T15:53:39;-3.80;99.90
8539;DHT22;4307;53.868;11.680;2022-12-18T15:56:09;-3.80;99.90
8539;DHT22;4307;53.868;11.680;2022-12-18T15:59:09;-3.80;99.90
8539;DHT22;4307;53.868;11.680;2022-12-18T16:01:36;-3.90;99.90
8539;DHT22;4307;53.868;11.680;2022-12-18T16:04:03;-3.90;99.90
8539;DHT22;4307;53.868;11.680;2022-12-18T16:06:30;-3.90;99.90
8539;DHT22;4307;53.868;11.680;2022-12-18T16:08:58;-3.90;99.90
8539;DHT22;4307;53.868;11.680;2022-12-18T16:11:26;-3.90;99.90